Crew | Aerofun Virtual



 METAR AND TAF INFORMATION
METAR FOR LFOP
ADDS - METARS form results

(0319 UTC 23 September 2019)
Data provider http://aviationweather.gov/metar/data/
 
METAR text: LFOP 230300Z AUTO 24008KT 9999 FEW015 13/12 Q1013
Conditions at: LFOP (ROUEN/BOOS (AUT), FR) observed 0300 UTC 23 September 2019
Temperature: 13.0°C (55°F)
Dewpoint: 12.0°C (54°F) [RH = 94%]
Pressure (altimeter): 29.91 inches Hg (1013.0 mb)
Winds: from the WSW (240 degrees) at 9 MPH (8 knots; 4.1 m/s)
Visibility: 6 or more miles (10+ km)
Ceiling: at least 12,000 feet AGL
Clouds: few clouds at 1500 feet AGL
Weather: no significant weather observed at this time

METAR text: LFOP 230230Z AUTO 24009KT 9999 FEW015 SCT020 BKN027 13/12 Q1012
Conditions at: LFOP (ROUEN/BOOS (AUT), FR) observed 0230 UTC 23 September 2019
Temperature: 13.0°C (55°F)
Dewpoint: 12.0°C (54°F) [RH = 94%]
Pressure (altimeter): 29.88 inches Hg (1012.0 mb)
Winds: from the WSW (240 degrees) at 10 MPH (9 knots; 4.6 m/s)
Visibility: 6 or more miles (10+ km)
Ceiling: 2700 feet AGL
Clouds: few clouds at 1500 feet AGL
scattered clouds at 2000 feet AGL
broken clouds at 2700 feet AGL
Weather: no significant weather observed at this time

Forecast for: AMD
Text: TAF AMD LFOP 221931Z 2219/2318 18010KT 9999 BKN030
Forecast period: 1900 UTC 22 September 2019 to 1800 UTC 23 September 2019
Forecast type: FROM: standard forecast or significant change
Winds: from the S (180 degrees) at 12 MPH (10 knots; 5.1 m/s)
Visibility: 6 or more miles 10+ km)
Ceiling: 3000 feet AGL
Clouds: broken clouds at 3000 feet AGL
Weather: no significant weather forecast for this period
Text: TEMPO 2219/2224 3000 SHRA SCT050CB
Forecast period: 1900 UTC 22 September 2019 to 0000 UTC 23 September 2019
Forecast type: TEMPORARY: The following changes expected for less than half the time period
Visibility: 1.86 miles (2.99 km)
Ceiling: at least 12,000 feet AGL
Clouds: scattered clouds at 5000 feet AGL
Weather: SHRA  (rain showers)

 AIRPORT MAP

 RUNWAY INFORMATION
Runway 04 Runway length 5577 ft Runway width 148 ft
Runway elevation 499 ft Runway displaced threshold 0 ft Runway heading 41
Runway 22 Runway length 5577 ft Runway width 148 ft
Runway elevation 512 ft Runway displaced threshold 0 ft Runway heading 221
Runway 05 Runway length 0 ft Runway width 0 ft
Runway elevation 499 ft Runway displaced threshold 0 ft Runway heading 0
Runway 23 Runway length 0 ft Runway width 0 ft
Runway elevation 507 ft Runway displaced threshold 0 ft Runway heading 0

 AIRPORT FREQUENCIES
Type APP Name ROUEN APP Frequency 118.575 MHZ
Type ATIS Name ATIS Frequency 120.725 MHZ
Type TWR Name ROUEN TWR Frequency 120.2 MHZ

 AIRPORT NEAR NAVIGATION AIDS